Terminal Aerodrome Forecast
Issued by NWS

Home | Current Version | Previous Version | Text Only | Print | Product List | Glossary On
Versions: 1 2 3 4 5 6 7 8 9 10 11 12 13
681
FTUS41 KLWX 271120
TAFMTN
TAF
KMTN 271120Z 2712/2812 18004KT P6SM SCT110 BKN250
     FM271800 19008KT P6SM BKN060 OVC080
     FM280200 16004KT P6SM BKN070 BKN090=

USA.gov is the U.S. government's official web portal to all federal, state and local government web resources and services.